sensor_id;sensor_type;location;lat;lon;timestamp;pressure;altitude;pressure_sealevel;temperature;humidity
80333;BME280;69652;51.864;-2.246;2023-09-07T00:01:09;101769.66;;;23.54;65.47
80333;BME280;69652;51.864;-2.246;2023-09-07T00:03:35;101761.06;;;23.59;64.88
80333;BME280;69652;51.864;-2.246;2023-09-07T00:06:06;101767.31;;;23.56;65.25
80333;BME280;69652;51.864;-2.246;2023-09-07T00:08:32;101758.56;;;23.54;65.42
80333;BME280;69652;51.864;-2.246;2023-09-07T00:11:08;101757.47;;;23.59;65.67
80333;BME280;69652;51.864;-2.246;2023-09-07T00:13:35;101755.44;;;23.56;65.74
80333;BME280;69652;51.864;-2.246;2023-09-07T00:16:02;101746.75;;;23.57;65.16
80333;BME280;69652;51.864;-2.246;2023-09-07T00:18:29;101734.78;;;23.53;65.77
80333;BME280;69652;51.864;-2.246;2023-09-07T00:20:54;101745.88;;;23.53;65.46
80333;BME280;69652;51.864;-2.246;2023-09-07T00:23:20;101741.72;;;23.44;66.02
80333;BME280;69652;51.864;-2.246;2023-09-07T00:25:46;101732.66;;;23.47;65.43
80333;BME280;69652;51.864;-2.246;2023-09-07T00:28:12;101747.97;;;23.40;65.40
80333;BME280;69652;51.864;-2.246;2023-09-07T00:30:43;101742.50;;;23.44;65.75
80333;BME280;69652;51.864;-2.246;2023-09-07T00:33:10;101738.13;;;23.43;65.71
80333;BME280;69652;51.864;-2.246;2023-09-07T00:35:36;101744.41;;;23.40;65.87
80333;BME280;69652;51.864;-2.246;2023-09-07T00:38:02;101747.97;;;23.40;65.42
80333;BME280;69652;51.864;-2.246;2023-09-07T00:40:28;101738.41;;;23.38;66.14
80333;BME280;69652;51.864;-2.246;2023-09-07T00:42:53;101745.88;;;23.34;66.26
80333;BME280;69652;51.864;-2.246;2023-09-07T00:45:19;101741.34;;;23.26;66.80
80333;BME280;69652;51.864;-2.246;2023-09-07T00:47:45;101747.69;;;23.26;66.75
80333;BME280;69652;51.864;-2.246;2023-09-07T00:50:11;101740.75;;;23.17;67.07
80333;BME280;69652;51.864;-2.246;2023-09-07T00:52:41;101735.66;;;23.19;67.07
80333;BME280;69652;51.864;-2.246;2023-09-07T00:55:08;101738.88;;;23.21;66.82
80333;BME280;69652;51.864;-2.246;2023-09-07T00:57:34;101741.28;;;23.22;67.00
80333;BME280;69652;51.864;-2.246;2023-09-07T01:00:00;101736.91;;;23.21;66.91
80333;BME280;69652;51.864;-2.246;2023-09-07T01:02:25;101734.06;;;23.18;66.94
80333;BME280;69652;51.864;-2.246;2023-09-07T01:04:51;101727.56;;;23.10;67.01
80333;BME280;69652;51.864;-2.246;2023-09-07T01:07:20;101719.63;;;23.09;67.00
80333;BME280;69652;51.864;-2.246;2023-09-07T01:09:52;101730.72;;;23.09;67.28
80333;BME280;69652;51.864;-2.246;2023-09-07T01:12:19;101731.50;;;23.09;67.27
80333;BME280;69652;51.864;-2.246;2023-09-07T01:14:51;101728.56;;;23.02;68.17
80333;BME280;69652;51.864;-2.246;2023-09-07T01:17:18;101708.34;;;22.98;68.66
80333;BME280;69652;51.864;-2.246;2023-09-07T01:19:45;101688.59;;;22.99;68.65
80333;BME280;69652;51.864;-2.246;2023-09-07T01:22:12;101669.56;;;22.98;68.55
80333;BME280;69652;51.864;-2.246;2023-09-07T01:24:40;101668.25;;;22.92;68.28
80333;BME280;69652;51.864;-2.246;2023-09-07T01:27:06;101681.94;;;22.85;68.60
80333;BME280;69652;51.864;-2.246;2023-09-07T01:29:32;101682.97;;;22.77;69.30
80333;BME280;69652;51.864;-2.246;2023-09-07T01:31:59;101677.75;;;22.75;68.97
80333;BME280;69652;51.864;-2.246;2023-09-07T01:34:24;101684.19;;;22.79;68.90
80333;BME280;69652;51.864;-2.246;2023-09-07T01:36:50;101690.47;;;22.76;69.40
80333;BME280;69652;51.864;-2.246;2023-09-07T01:39:16;101676.69;;;22.80;68.31
80333;BME280;69652;51.864;-2.246;2023-09-07T01:41:44;101682.66;;;22.82;69.10
80333;BME280;69652;51.864;-2.246;2023-09-07T01:44:10;101679.53;;;22.83;68.05
80333;BME280;69652;51.864;-2.246;2023-09-07T01:46:36;101682.75;;;22.85;68.77
80333;BME280;69652;51.864;-2.246;2023-09-07T01:49:02;101691.06;;;22.85;67.90
80333;BME280;69652;51.864;-2.246;2023-09-07T01:51:27;101695.44;;;22.86;68.60
80333;BME280;69652;51.864;-2.246;2023-09-07T01:53:54;101693.47;;;22.87;67.95
80333;BME280;69652;51.864;-2.246;2023-09-07T01:56:19;101699.34;;;22.85;67.57
80333;BME280;69652;51.864;-2.246;2023-09-07T01:58:45;101695.34;;;22.83;67.90
80333;BME280;69652;51.864;-2.246;2023-09-07T02:01:27;101688.13;;;22.78;68.03
80333;BME280;69652;51.864;-2.246;2023-09-07T02:03:54;101675.88;;;22.79;67.96
80333;BME280;69652;51.864;-2.246;2023-09-07T02:06:20;101685.34;;;22.78;67.89
80333;BME280;69652;51.864;-2.246;2023-09-07T02:08:45;101671.78;;;22.73;68.04
80333;BME280;69652;51.864;-2.246;2023-09-07T02:11:11;101665.81;;;22.71;68.59
80333;BME280;69652;51.864;-2.246;2023-09-07T02:13:36;101658.66;;;22.70;68.49
80333;BME280;69652;51.864;-2.246;2023-09-07T02:16:05;101651.81;;;22.64;68.67
80333;BME280;69652;51.864;-2.246;2023-09-07T02:18:33;101669.50;;;22.59;68.65
80333;BME280;69652;51.864;-2.246;2023-09-07T02:21:03;101671.31;;;22.52;68.72
80333;BME280;69652;51.864;-2.246;2023-09-07T02:23:32;101679.63;;;22.52;68.87
80333;BME280;69652;51.864;-2.246;2023-09-07T02:25:58;101683.09;;;22.49;68.68
80333;BME280;69652;51.864;-2.246;2023-09-07T02:28:25;101693.31;;;22.29;69.72
80333;BME280;69652;51.864;-2.246;2023-09-07T02:30:51;101695.13;;;22.06;70.87
80333;BME280;69652;51.864;-2.246;2023-09-07T02:33:17;101693.84;;;21.87;71.97
80333;BME280;69652;51.864;-2.246;2023-09-07T02:35:42;101691.28;;;21.94;71.53
80333;BME280;69652;51.864;-2.246;2023-09-07T02:38:08;101696.66;;;22.03;71.37
80333;BME280;69652;51.864;-2.246;2023-09-07T02:40:42;101697.50;;;22.07;71.40
80333;BME280;69652;51.864;-2.246;2023-09-07T02:43:08;101693.59;;;22.08;70.53
80333;BME280;69652;51.864;-2.246;2023-09-07T02:45:34;101699.56;;;22.10;70.04
80333;BME280;69652;51.864;-2.246;2023-09-07T02:48:00;101688.16;;;22.12;70.57
80333;BME280;69652;51.864;-2.246;2023-09-07T02:50:25;101684.22;;;22.13;70.51
80333;BME280;69652;51.864;-2.246;2023-09-07T02:52:51;101683.88;;;22.14;70.90
80333;BME280;69652;51.864;-2.246;2023-09-07T02:55:17;101682.72;;;22.15;70.13
80333;BME280;69652;51.864;-2.246;2023-09-07T02:57:42;101680.66;;;22.12;70.77
80333;BME280;69652;51.864;-2.246;2023-09-07T03:00:09;101665.31;;;22.15;69.61
80333;BME280;69652;51.864;-2.246;2023-09-07T03:02:36;101670.06;;;22.14;69.55
80333;BME280;69652;51.864;-2.246;2023-09-07T03:05:02;101666.38;;;22.10;70.17
80333;BME280;69652;51.864;-2.246;2023-09-07T03:07:33;101679.41;;;22.10;69.68
80333;BME280;69652;51.864;-2.246;2023-09-07T03:09:59;101673.06;;;22.09;70.16
80333;BME280;69652;51.864;-2.246;2023-09-07T03:12:27;101682.19;;;22.10;70.18
80333;BME280;69652;51.864;-2.246;2023-09-07T03:14:52;101673.63;;;22.15;69.78
80333;BME280;69652;51.864;-2.246;2023-09-07T03:17:18;101673.72;;;22.18;69.59
80333;BME280;69652;51.864;-2.246;2023-09-07T03:19:46;101670.41;;;22.13;70.04
80333;BME280;69652;51.864;-2.246;2023-09-07T03:22:12;101660.94;;;22.14;70.05
80333;BME280;69652;51.864;-2.246;2023-09-07T03:24:38;101665.78;;;22.17;70.39
80333;BME280;69652;51.864;-2.246;2023-09-07T03:27:03;101670.94;;;22.18;70.06
80333;BME280;69652;51.864;-2.246;2023-09-07T03:29:30;101668.19;;;22.18;69.90
80333;BME280;69652;51.864;-2.246;2023-09-07T03:31:59;101668.53;;;22.17;70.11
80333;BME280;69652;51.864;-2.246;2023-09-07T03:34:24;101664.63;;;22.18;70.20
80333;BME280;69652;51.864;-2.246;2023-09-07T03:36:50;101668.19;;;22.18;69.16
80333;BME280;69652;51.864;-2.246;2023-09-07T03:39:15;101662.22;;;22.16;69.69
80333;BME280;69652;51.864;-2.246;2023-09-07T03:41:41;101647.84;;;22.11;69.67
80333;BME280;69652;51.864;-2.246;2023-09-07T03:44:06;101651.41;;;22.11;69.92
80333;BME280;69652;51.864;-2.246;2023-09-07T03:46:32;101652.84;;;22.05;70.51
80333;BME280;69652;51.864;-2.246;2023-09-07T03:48:57;101643.31;;;22.03;70.08
80333;BME280;69652;51.864;-2.246;2023-09-07T03:51:22;101642.41;;;21.98;70.51
80333;BME280;69652;51.864;-2.246;2023-09-07T03:53:48;101653.78;;;21.97;70.60
80333;BME280;69652;51.864;-2.246;2023-09-07T03:56:14;101655.41;;;21.98;70.06
80333;BME280;69652;51.864;-2.246;2023-09-07T03:58:39;101658.88;;;21.95;70.27
80333;BME280;69652;51.864;-2.246;2023-09-07T04:01:05;101647.66;;;21.88;70.71
80333;BME280;69652;51.864;-2.246;2023-09-07T04:05:57;101644.53;;;21.74;71.91
80333;BME280;69652;51.864;-2.246;2023-09-07T04:08:22;101646.94;;;21.75;71.87
80333;BME280;69652;51.864;-2.246;2023-09-07T04:10:48;101642.91;;;21.73;71.37
80333;BME280;69652;51.864;-2.246;2023-09-07T04:13:14;101651.59;;;21.71;71.53
80333;BME280;69652;51.864;-2.246;2023-09-07T04:15:46;101646.78;;;21.68;71.65
80333;BME280;69652;51.864;-2.246;2023-09-07T04:18:12;101651.41;;;21.64;72.14
80333;BME280;69652;51.864;-2.246;2023-09-07T04:20:40;101649.34;;;21.61;71.61
80333;BME280;69652;51.864;-2.246;2023-09-07T04:23:06;101644.16;;;21.59;71.44
80333;BME280;69652;51.864;-2.246;2023-09-07T04:25:32;101643.81;;;21.61;71.76
80333;BME280;69652;51.864;-2.246;2023-09-07T04:28:00;101644.09;;;21.56;72.53
80333;BME280;69652;51.864;-2.246;2023-09-07T04:30:26;101653.53;;;21.55;72.33
80333;BME280;69652;51.864;-2.246;2023-09-07T04:32:52;101650.94;;;21.46;72.83
80333;BME280;69652;51.864;-2.246;2023-09-07T04:35:18;101645.31;;;21.43;73.00
80333;BME280;69652;51.864;-2.246;2023-09-07T04:37:44;101646.47;;;21.42;73.29
80333;BME280;69652;51.864;-2.246;2023-09-07T04:40:09;101646.38;;;21.38;73.24
80333;BME280;69652;51.864;-2.246;2023-09-07T04:42:35;101650.84;;;21.43;72.14
80333;BME280;69652;51.864;-2.246;2023-09-07T04:45:01;101639.69;;;21.39;73.38
80333;BME280;69652;51.864;-2.246;2023-09-07T04:47:27;101634.88;;;21.36;73.01
80333;BME280;69652;51.864;-2.246;2023-09-07T04:49:52;101636.06;;;21.35;72.93
80333;BME280;69652;51.864;-2.246;2023-09-07T04:52:18;101641.13;;;21.33;73.23
80333;BME280;69652;51.864;-2.246;2023-09-07T04:54:44;101641.81;;;21.30;73.28
80333;BME280;69652;51.864;-2.246;2023-09-07T04:57:10;101648.25;;;21.34;73.10
80333;BME280;69652;51.864;-2.246;2023-09-07T04:59:36;101644.34;;;21.35;72.97
80333;BME280;69652;51.864;-2.246;2023-09-07T05:02:01;101643.88;;;21.33;72.79
80333;BME280;69652;51.864;-2.246;2023-09-07T05:04:28;101639.75;;;21.27;73.08
80333;BME280;69652;51.864;-2.246;2023-09-07T05:06:53;101647.34;;;21.30;72.81
80333;BME280;69652;51.864;-2.246;2023-09-07T05:09:19;101651.72;;;21.31;72.92
80333;BME280;69652;51.864;-2.246;2023-09-07T05:11:45;101647.81;;;21.32;72.97
80333;BME280;69652;51.864;-2.246;2023-09-07T05:14:11;101649.41;;;21.33;72.93
80333;BME280;69652;51.864;-2.246;2023-09-07T05:16:36;101655.28;;;21.32;72.81
80333;BME280;69652;51.864;-2.246;2023-09-07T05:19:02;101661.66;;;21.20;72.74
80333;BME280;69652;51.864;-2.246;2023-09-07T05:21:28;101660.13;;;20.95;74.13
80333;BME280;69652;51.864;-2.246;2023-09-07T05:23:54;101654.50;;;20.63;75.20
80333;BME280;69652;51.864;-2.246;2023-09-07T05:26:22;101662.31;;;20.61;75.06
80333;BME280;69652;51.864;-2.246;2023-09-07T05:28:49;101668.78;;;20.53;75.53
80333;BME280;69652;51.864;-2.246;2023-09-07T05:31:14;101666.00;;;20.53;75.70
80333;BME280;69652;51.864;-2.246;2023-09-07T05:33:40;101679.44;;;20.54;76.33
80333;BME280;69652;51.864;-2.246;2023-09-07T05:36:05;101681.63;;;20.61;75.28
80333;BME280;69652;51.864;-2.246;2023-09-07T05:38:31;101675.28;;;20.61;75.03
80333;BME280;69652;51.864;-2.246;2023-09-07T05:40:57;101665.19;;;20.65;74.37
80333;BME280;69652;51.864;-2.246;2023-09-07T05:43:22;101676.56;;;20.63;75.93
80333;BME280;69652;51.864;-2.246;2023-09-07T05:45:48;101671.81;;;20.76;75.81
80333;BME280;69652;51.864;-2.246;2023-09-07T05:48:13;101671.66;;;20.84;75.42
80333;BME280;69652;51.864;-2.246;2023-09-07T05:50:42;101664.66;;;20.87;75.05
80333;BME280;69652;51.864;-2.246;2023-09-07T05:53:07;101668.22;;;20.87;74.67
80333;BME280;69652;51.864;-2.246;2023-09-07T05:55:33;101675.44;;;20.92;75.13
80333;BME280;69652;51.864;-2.246;2023-09-07T05:57:58;101680.59;;;20.94;75.21
80333;BME280;69652;51.864;-2.246;2023-09-07T06:00:24;101685.09;;;20.98;74.15
80333;BME280;69652;51.864;-2.246;2023-09-07T06:02:50;101687.50;;;21.00;74.38
80333;BME280;69652;51.864;-2.246;2023-09-07T06:05:16;101682.06;;;21.03;74.46
80333;BME280;69652;51.864;-2.246;2023-09-07T06:07:41;101693.22;;;21.07;73.68
80333;BME280;69652;51.864;-2.246;2023-09-07T06:10:07;101700.00;;;21.09;73.90
80333;BME280;69652;51.864;-2.246;2023-09-07T06:12:33;101701.03;;;21.05;74.10
80333;BME280;69652;51.864;-2.246;2023-09-07T06:14:59;101706.81;;;21.00;75.08
80333;BME280;69652;51.864;-2.246;2023-09-07T06:17:25;101709.56;;;21.00;74.29
80333;BME280;69652;51.864;-2.246;2023-09-07T06:19:51;101701.66;;;20.98;74.66
80333;BME280;69652;51.864;-2.246;2023-09-07T06:22:16;101694.72;;;21.04;74.39
80333;BME280;69652;51.864;-2.246;2023-09-07T06:24:42;101695.97;;;21.07;74.96
80333;BME280;69652;51.864;-2.246;2023-09-07T06:27:07;101697.31;;;21.13;74.12
80333;BME280;69652;51.864;-2.246;2023-09-07T06:29:32;101705.72;;;21.16;74.10
80333;BME280;69652;51.864;-2.246;2023-09-07T06:31:58;101711.38;;;21.20;73.61
80333;BME280;69652;51.864;-2.246;2023-09-07T06:34:24;101708.72;;;21.23;74.31
80333;BME280;69652;51.864;-2.246;2023-09-07T06:36:49;101707.19;;;21.26;73.97
80333;BME280;69652;51.864;-2.246;2023-09-07T06:39:15;101708.09;;;21.30;74.18
80333;BME280;69652;51.864;-2.246;2023-09-07T06:41:40;101708.09;;;21.30;73.75
80333;BME280;69652;51.864;-2.246;2023-09-07T06:44:06;101704.38;;;21.38;73.55
80333;BME280;69652;51.864;-2.246;2023-09-07T06:46:31;101698.59;;;21.43;73.62
80333;BME280;69652;51.864;-2.246;2023-09-07T06:48:57;101693.19;;;21.47;73.78
80333;BME280;69652;51.864;-2.246;2023-09-07T06:51:23;101697.97;;;21.50;73.14
80333;BME280;69652;51.864;-2.246;2023-09-07T06:53:48;101697.03;;;21.58;72.69
80333;BME280;69652;51.864;-2.246;2023-09-07T06:56:15;101699.06;;;21.61;72.72
80333;BME280;69652;51.864;-2.246;2023-09-07T06:58:41;101692.13;;;21.67;72.00
80333;BME280;69652;51.864;-2.246;2023-09-07T07:01:07;101707.28;;;21.57;73.31
80333;BME280;69652;51.864;-2.246;2023-09-07T07:03:33;101703.44;;;21.62;72.75
80333;BME280;69652;51.864;-2.246;2023-09-07T07:05:59;101708.38;;;21.69;72.44
80333;BME280;69652;51.864;-2.246;2023-09-07T07:08:25;101704.97;;;21.75;72.66
80333;BME280;69652;51.864;-2.246;2023-09-07T07:10:51;101704.16;;;21.75;72.72
80333;BME280;69652;51.864;-2.246;2023-09-07T07:13:16;101695.69;;;21.83;71.57
80333;BME280;69652;51.864;-2.246;2023-09-07T07:15:42;101700.88;;;21.85;72.01
80333;BME280;69652;51.864;-2.246;2023-09-07T07:18:08;101704.44;;;21.85;71.58
80333;BME280;69652;51.864;-2.246;2023-09-07T07:20:38;101702.41;;;21.82;72.24
80333;BME280;69652;51.864;-2.246;2023-09-07T07:23:04;101697.84;;;21.90;72.10
80333;BME280;69652;51.864;-2.246;2023-09-07T07:25:31;101700.63;;;21.90;71.73
80333;BME280;69652;51.864;-2.246;2023-09-07T07:28:02;101705.88;;;21.95;71.84
80333;BME280;69652;51.864;-2.246;2023-09-07T07:30:34;101707.31;;;21.89;72.08
80333;BME280;69652;51.864;-2.246;2023-09-07T07:33:02;101699.91;;;21.93;71.48
80333;BME280;69652;51.864;-2.246;2023-09-07T07:35:29;101706.25;;;21.93;71.23
80333;BME280;69652;51.864;-2.246;2023-09-07T07:37:55;101692.31;;;21.90;71.57
80333;BME280;69652;51.864;-2.246;2023-09-07T07:40:21;101700.63;;;21.90;71.38
80333;BME280;69652;51.864;-2.246;2023-09-07T07:42:47;101691.97;;;21.91;71.58
80333;BME280;69652;51.864;-2.246;2023-09-07T07:45:13;101700.34;;;21.95;71.88
80333;BME280;69652;51.864;-2.246;2023-09-07T07:47:42;101700.91;;;22.01;71.33
80333;BME280;69652;51.864;-2.246;2023-09-07T07:50:08;101703.47;;;21.93;71.41
80333;BME280;69652;51.864;-2.246;2023-09-07T07:52:33;101698.66;;;21.90;71.54
80333;BME280;69652;51.864;-2.246;2023-09-07T07:55:00;101696.00;;;21.94;72.51
80333;BME280;69652;51.864;-2.246;2023-09-07T07:57:25;101693.84;;;22.19;71.07
80333;BME280;69652;51.864;-2.246;2023-09-07T07:59:51;101696.91;;;22.14;71.19
80333;BME280;69652;51.864;-2.246;2023-09-07T08:02:16;101699.81;;;22.21;70.67
80333;BME280;69652;51.864;-2.246;2023-09-07T08:04:42;101695.28;;;22.28;70.52
80333;BME280;69652;51.864;-2.246;2023-09-07T08:07:07;101697.75;;;22.33;70.90
80333;BME280;69652;51.864;-2.246;2023-09-07T08:09:34;101699.91;;;22.40;70.67
80333;BME280;69652;51.864;-2.246;2023-09-07T08:12:00;101703.50;;;22.60;69.86
80333;BME280;69652;51.864;-2.246;2023-09-07T08:14:29;101692.22;;;22.68;69.76
80333;BME280;69652;51.864;-2.246;2023-09-07T08:16:55;101692.06;;;22.77;69.17
80333;BME280;69652;51.864;-2.246;2023-09-07T08:19:21;101680.78;;;22.86;69.27
80333;BME280;69652;51.864;-2.246;2023-09-07T08:21:47;101683.91;;;23.03;68.58
80333;BME280;69652;51.864;-2.246;2023-09-07T08:24:13;101680.91;;;23.31;67.66
80333;BME280;69652;51.864;-2.246;2023-09-07T08:26:38;101685.56;;;23.47;66.96
80333;BME280;69652;51.864;-2.246;2023-09-07T08:29:05;101681.63;;;23.48;66.93
80333;BME280;69652;51.864;-2.246;2023-09-07T08:31:38;101682.44;;;23.48;67.44
80333;BME280;69652;51.864;-2.246;2023-09-07T08:34:06;101683.75;;;23.54;67.20
80333;BME280;69652;51.864;-2.246;2023-09-07T08:36:32;101682.06;;;23.72;66.46
80333;BME280;69652;51.864;-2.246;2023-09-07T08:39:03;101677.72;;;23.71;66.22
80333;BME280;69652;51.864;-2.246;2023-09-07T08:41:36;101671.38;;;23.71;66.51
80333;BME280;69652;51.864;-2.246;2023-09-07T08:44:10;101664.09;;;23.86;66.23
80333;BME280;69652;51.864;-2.246;2023-09-07T08:46:37;101667.72;;;23.90;65.70
80333;BME280;69652;51.864;-2.246;2023-09-07T08:49:03;101665.63;;;24.06;65.68
80333;BME280;69652;51.864;-2.246;2023-09-07T08:51:29;101674.47;;;24.15;64.86
80333;BME280;69652;51.864;-2.246;2023-09-07T08:53:55;101678.25;;;24.26;64.92
80333;BME280;69652;51.864;-2.246;2023-09-07T08:56:22;101671.09;;;24.52;64.70
80333;BME280;69652;51.864;-2.246;2023-09-07T08:58:48;101668.09;;;24.64;64.17
80333;BME280;69652;51.864;-2.246;2023-09-07T09:01:19;101664.59;;;24.70;63.40
80333;BME280;69652;51.864;-2.246;2023-09-07T09:03:48;101667.00;;;24.72;63.78
80333;BME280;69652;51.864;-2.246;2023-09-07T09:06:16;101670.06;;;24.93;63.13
80333;BME280;69652;51.864;-2.246;2023-09-07T09:08:49;101667.47;;;25.07;62.65
80333;BME280;69652;51.864;-2.246;2023-09-07T09:11:15;101673.81;;;25.08;63.17
80333;BME280;69652;51.864;-2.246;2023-09-07T09:13:41;101663.31;;;25.28;62.89
80333;BME280;69652;51.864;-2.246;2023-09-07T09:16:08;101665.88;;;25.43;61.93
80333;BME280;69652;51.864;-2.246;2023-09-07T09:18:33;101663.38;;;25.31;61.91
80333;BME280;69652;51.864;-2.246;2023-09-07T09:20:59;101663.75;;;25.30;62.40
80333;BME280;69652;51.864;-2.246;2023-09-07T09:23:30;101660.78;;;25.52;61.24
80333;BME280;69652;51.864;-2.246;2023-09-07T09:25:58;101666.31;;;25.49;62.32
80333;BME280;69652;51.864;-2.246;2023-09-07T09:28:25;101663.84;;;25.37;61.85
80333;BME280;69652;51.864;-2.246;2023-09-07T09:30:51;101660.78;;;25.52;61.63
80333;BME280;69652;51.864;-2.246;2023-09-07T09:33:19;101658.91;;;25.60;61.73
80333;BME280;69652;51.864;-2.246;2023-09-07T09:35:45;101661.69;;;25.60;61.58
80333;BME280;69652;51.864;-2.246;2023-09-07T09:38:13;101659.28;;;25.59;62.34
80333;BME280;69652;51.864;-2.246;2023-09-07T09:40:38;101661.91;;;25.44;61.64
80333;BME280;69652;51.864;-2.246;2023-09-07T09:43:05;101659.56;;;25.46;61.81
80333;BME280;69652;51.864;-2.246;2023-09-07T09:45:31;101658.38;;;25.51;61.81
80333;BME280;69652;51.864;-2.246;2023-09-07T09:47:58;101653.28;;;25.57;60.85
80333;BME280;69652;51.864;-2.246;2023-09-07T09:50:27;101648.03;;;25.88;60.09
80333;BME280;69652;51.864;-2.246;2023-09-07T09:52:53;101655.28;;;26.00;60.15
80333;BME280;69652;51.864;-2.246;2023-09-07T09:55:19;101643.88;;;26.16;60.56
80333;BME280;69652;51.864;-2.246;2023-09-07T09:57:45;101642.41;;;26.29;59.15
80333;BME280;69652;51.864;-2.246;2023-09-07T10:00:11;101639.03;;;26.71;58.60
80333;BME280;69652;51.864;-2.246;2023-09-07T10:03:02;101640.97;;;26.60;58.93
80333;BME280;69652;51.864;-2.246;2023-09-07T10:05:29;101636.63;;;26.66;58.36
80333;BME280;69652;51.864;-2.246;2023-09-07T10:08:01;101631.34;;;26.43;58.93
80333;BME280;69652;51.864;-2.246;2023-09-07T10:10:34;101638.09;;;26.42;58.86
80333;BME280;69652;51.864;-2.246;2023-09-07T10:13:00;101644.78;;;26.34;59.11
80333;BME280;69652;51.864;-2.246;2023-09-07T10:15:27;101640.41;;;26.33;58.89
80333;BME280;69652;51.864;-2.246;2023-09-07T10:18:09;101640.13;;;26.56;58.32
80333;BME280;69652;51.864;-2.246;2023-09-07T10:20:50;101643.03;;;26.74;58.24
80333;BME280;69652;51.864;-2.246;2023-09-07T10:23:17;101634.63;;;26.70;57.65
80333;BME280;69652;51.864;-2.246;2023-09-07T10:25:47;101620.53;;;28.14;54.25
80333;BME280;69652;51.864;-2.246;2023-09-07T10:28:24;101617.09;;;28.93;51.51
80333;BME280;69652;51.864;-2.246;2023-09-07T10:31:04;101614.75;;;28.85;51.76
80333;BME280;69652;51.864;-2.246;2023-09-07T10:33:31;101609.44;;;29.08;52.24
80333;BME280;69652;51.864;-2.246;2023-09-07T10:35:57;101600.78;;;28.88;53.92
80333;BME280;69652;51.864;-2.246;2023-09-07T10:38:23;101606.75;;;28.90;52.11
80333;BME280;69652;51.864;-2.246;2023-09-07T10:40:55;101591.38;;;29.23;51.38
80333;BME280;69652;51.864;-2.246;2023-09-07T10:43:31;101600.97;;;29.15;50.90
80333;BME280;69652;51.864;-2.246;2023-09-07T10:45:59;101595.53;;;28.94;51.80
80333;BME280;69652;51.864;-2.246;2023-09-07T10:48:26;101597.19;;;28.84;52.72
80333;BME280;69652;51.864;-2.246;2023-09-07T10:50:53;101596.00;;;28.82;52.49
80333;BME280;69652;51.864;-2.246;2023-09-07T10:53:30;101596.47;;;28.59;53.10
80333;BME280;69652;51.864;-2.246;2023-09-07T10:56:02;101595.38;;;28.42;53.24
80333;BME280;69652;51.864;-2.246;2023-09-07T10:58:31;101580.56;;;28.52;53.84
80333;BME280;69652;51.864;-2.246;2023-09-07T11:00:57;101584.53;;;28.55;53.39
80333;BME280;69652;51.864;-2.246;2023-09-07T11:03:26;101587.25;;;28.72;53.14
80333;BME280;69652;51.864;-2.246;2023-09-07T11:05:58;101584.41;;;28.90;53.69
80333;BME280;69652;51.864;-2.246;2023-09-07T11:08:24;101582.69;;;29.03;52.22
80333;BME280;69652;51.864;-2.246;2023-09-07T11:10:51;101580.34;;;29.02;52.38
80333;BME280;69652;51.864;-2.246;2023-09-07T11:13:19;101579.78;;;29.25;52.24
80333;BME280;69652;51.864;-2.246;2023-09-07T11:15:45;101574.88;;;29.39;52.80
80333;BME280;69652;51.864;-2.246;2023-09-07T11:18:10;101575.25;;;29.86;51.85
80333;BME280;69652;51.864;-2.246;2023-09-07T11:20:36;101561.75;;;31.60;46.72
80333;BME280;69652;51.864;-2.246;2023-09-07T11:23:05;101563.22;;;32.11;45.35
80333;BME280;69652;51.864;-2.246;2023-09-07T11:25:35;101556.75;;;31.25;47.38
80333;BME280;69652;51.864;-2.246;2023-09-07T11:28:02;101553.44;;;31.30;48.06
80333;BME280;69652;51.864;-2.246;2023-09-07T11:30:28;101553.78;;;31.05;48.73
80333;BME280;69652;51.864;-2.246;2023-09-07T11:33:23;101543.34;;;31.09;47.56
80333;BME280;69652;51.864;-2.246;2023-09-07T11:35:49;101530.34;;;33.04;44.05
80333;BME280;69652;51.864;-2.246;2023-09-07T11:38:16;101533.34;;;34.86;39.19
80333;BME280;69652;51.864;-2.246;2023-09-07T11:40:42;101524.22;;;35.55;38.03
80333;BME280;69652;51.864;-2.246;2023-09-07T11:43:16;101521.09;;;35.87;36.87
80333;BME280;69652;51.864;-2.246;2023-09-07T11:45:43;101520.78;;;36.16;39.06
80333;BME280;69652;51.864;-2.246;2023-09-07T11:48:10;101510.75;;;36.68;36.10
80333;BME280;69652;51.864;-2.246;2023-09-07T11:50:36;101504.47;;;36.73;36.35
80333;BME280;69652;51.864;-2.246;2023-09-07T11:53:03;101505.00;;;37.39;35.27
80333;BME280;69652;51.864;-2.246;2023-09-07T11:55:29;101500.44;;;37.50;34.04
80333;BME280;69652;51.864;-2.246;2023-09-07T11:57:54;101499.50;;;37.72;34.00
80333;BME280;69652;51.864;-2.246;2023-09-07T12:00:20;101493.34;;;38.61;32.86
80333;BME280;69652;51.864;-2.246;2023-09-07T12:02:47;101484.88;;;38.85;33.57
80333;BME280;69652;51.864;-2.246;2023-09-07T12:05:13;101480.44;;;39.41;30.56
80333;BME280;69652;51.864;-2.246;2023-09-07T12:07:41;101479.19;;;39.42;31.11
80333;BME280;69652;51.864;-2.246;2023-09-07T12:10:08;101467.50;;;39.93;30.00
80333;BME280;69652;51.864;-2.246;2023-09-07T12:12:37;101470.34;;;40.22;30.47
80333;BME280;69652;51.864;-2.246;2023-09-07T12:15:04;101469.84;;;40.38;29.80
80333;BME280;69652;51.864;-2.246;2023-09-07T12:17:33;101471.22;;;40.14;28.12
80333;BME280;69652;51.864;-2.246;2023-09-07T12:19:59;101468.47;;;39.75;29.67
80333;BME280;69652;51.864;-2.246;2023-09-07T12:22:26;101471.16;;;40.72;27.92
80333;BME280;69652;51.864;-2.246;2023-09-07T12:24:51;101461.44;;;40.00;28.85
80333;BME280;69652;51.864;-2.246;2023-09-07T12:27:17;101462.56;;;39.25;29.50
80333;BME280;69652;51.864;-2.246;2023-09-07T12:29:43;101461.47;;;41.40;27.28
80333;BME280;69652;51.864;-2.246;2023-09-07T12:32:09;101464.38;;;41.05;27.29
80333;BME280;69652;51.864;-2.246;2023-09-07T12:34:34;101459.41;;;41.20;26.80
80333;BME280;69652;51.864;-2.246;2023-09-07T12:37:01;101452.25;;;41.51;25.92
80333;BME280;69652;51.864;-2.246;2023-09-07T12:39:26;101450.72;;;42.70;24.66
80333;BME280;69652;51.864;-2.246;2023-09-07T12:41:52;101458.31;;;41.84;25.46